Time;durP1;ratioP1;P1;durP2;ratioP2;P2;SDS_P1;SDS_P2;PMS_P1;PMS_P2;Temp;Humidity;BMP_temperature;BMP_pressure;BME280_temperature;BME280_humidity;BME280_pressure;Samples;Min_cycle;Max_cycle;Signal;HPM_P1;HPM_P2
2021/03/26 00:02:11;;;;;;;146.62;79.97;;;;;;;7.76;63.51;100731.19;1784224;78;28490;-73
2021/03/26 00:04:37;;;;;;;146.05;80.83;;;;;;;7.75;63.43;100730.33;1787044;78;21627;-73
2021/03/26 00:07:03;;;;;;;146.68;78.55;;;;;;;7.67;63.57;100732.75;1784787;78;21899;-73
2021/03/26 00:09:32;;;;;;;143.57;77.87;;;;;;;7.66;63.49;100736.33;1783274;78;21667;-74
2021/03/26 00:12:00;;;;;;;139.57;76.47;;;;;;;7.68;63.40;100727.86;1806417;78;21192;-74
2021/03/26 00:14:25;;;;;;;154.93;83.70;;;;;;;7.72;63.25;100731.89;1788809;78;21234;-73
2021/03/26 00:16:52;;;;;;;144.13;77.53;;;;;;;7.68;63.36;100724.73;1781824;78;26648;-73
2021/03/26 00:19:17;;;;;;;138.82;74.70;;;;;;;7.68;63.24;100728.68;1784208;78;21651;-73
2021/03/26 00:21:43;;;;;;;146.45;77.87;;;;;;;7.68;63.23;100722.60;1780950;78;27534;-72
2021/03/26 00:24:10;;;;;;;139.75;75.87;;;;;;;7.63;63.32;100720.80;1795010;78;24520;-73
2021/03/26 00:26:35;;;;;;;145.87;77.60;;;;;;;7.58;63.48;100727.73;1789913;78;21635;-73
2021/03/26 00:29:01;;;;;;;164.45;76.55;;;;;;;7.60;63.36;100728.92;1788708;78;26767;-72
2021/03/26 00:31:27;;;;;;;148.30;78.20;;;;;;;7.61;63.18;100727.98;1758781;78;21838;-73
2021/03/26 00:33:53;;;;;;;145.15;77.42;;;;;;;7.55;63.42;100728.84;1796544;78;27042;-73
2021/03/26 00:36:18;;;;;;;146.03;78.13;;;;;;;7.55;63.30;100720.95;1786619;78;23561;-72
2021/03/26 00:38:44;;;;;;;138.35;75.87;;;;;;;7.42;63.59;100722.88;1777905;78;28550;-73
2021/03/26 00:41:10;;;;;;;154.03;72.30;;;;;;;7.44;63.59;100726.23;1791846;78;26707;-72
2021/03/26 00:43:36;;;;;;;143.45;77.17;;;;;;;7.48;63.37;100727.64;1790685;78;22494;-72
2021/03/26 00:46:02;;;;;;;147.35;79.55;;;;;;;7.47;63.45;100725.99;1789820;78;27083;-72
2021/03/26 00:48:27;;;;;;;142.70;76.13;;;;;;;7.43;63.50;100723.23;1767297;78;25666;-73
2021/03/26 00:50:59;;;;;;;151.00;79.95;;;;;;;7.44;63.48;100724.92;1763070;78;28319;-73
2021/03/26 00:53:33;;;;;;;145.75;79.10;;;;;;;7.46;63.41;100726.11;1771033;78;21223;-73
2021/03/26 00:55:58;;;;;;;148.05;79.42;;;;;;;7.36;63.57;100721.59;1768168;78;21173;-73
2021/03/26 00:58:24;;;;;;;145.85;76.90;;;;;;;7.37;63.64;100718.47;1778988;78;27036;-72
2021/03/26 01:00:51;;;;;;;146.25;76.07;;;;;;;7.37;63.65;100721.09;1779127;78;24501;-72
2021/03/26 01:03:17;;;;;;;151.85;78.60;;;;;;;7.34;63.78;100726.59;1775150;78;21256;-72
2021/03/26 01:05:50;;;;;;;144.15;77.15;;;;;;;7.13;64.61;100723.39;1775582;78;21233;-71
2021/03/26 01:08:17;;;;;;;145.38;78.72;;;;;;;7.11;64.94;100725.28;1762182;78;21212;-72
2021/03/26 01:10:46;;;;;;;148.22;78.95;;;;;;;6.98;65.14;100724.58;1764213;78;21190;-72
2021/03/26 01:13:12;;;;;;;168.97;75.62;;;;;;;6.91;65.63;100726.81;1788246;78;21265;-73
2021/03/26 01:15:38;;;;;;;150.07;78.47;;;;;;;6.98;65.27;100722.77;1769892;78;28320;-73
2021/03/26 01:18:07;;;;;;;146.13;79.42;;;;;;;7.10;64.94;100715.75;1770108;78;26794;-71
2021/03/26 01:20:37;;;;;;;145.05;77.65;;;;;;;7.15;64.69;100713.59;1775827;78;21710;-72
2021/03/26 01:23:05;;;;;;;149.50;80.22;;;;;;;7.17;64.70;100714.30;1776283;78;21184;-72
2021/03/26 01:25:34;;;;;;;157.10;77.67;;;;;;;7.21;64.49;100719.30;1772728;78;21192;-72
2021/03/26 01:28:00;;;;;;;148.82;78.95;;;;;;;7.26;64.29;100718.48;1758967;78;21244;-72
2021/03/26 01:30:27;;;;;;;144.87;79.47;;;;;;;7.30;64.23;100725.16;1776202;78;26924;-71
2021/03/26 01:32:55;;;;;;;147.60;76.97;;;;;;;7.27;64.33;100722.77;1763555;78;21213;-72
2021/03/26 01:35:21;;;;;;;;;;;;;;;7.27;64.29;100720.14;1770860;78;21195;-73
2021/03/26 01:37:48;;;;;;;143.13;75.03;;;;;;;7.26;64.36;100727.69;1768703;78;20627;-73
2021/03/26 01:40:17;;;;;;;144.50;76.82;;;;;;;7.21;64.39;100720.62;1763481;78;21193;-73
2021/03/26 01:42:43;;;;;;;141.97;75.67;;;;;;;7.26;64.29;100719.80;1786635;78;21243;-72
2021/03/26 01:45:20;;;;;;;156.90;79.70;;;;;;;7.15;64.56;100726.72;1773530;78;21591;-72
2021/03/26 01:47:46;;;;;;;148.32;79.35;;;;;;;7.22;64.44;100731.49;1773262;78;21223;-72
2021/03/26 01:50:14;;;;;;;161.12;80.92;;;;;;;7.26;64.41;100727.69;1773052;79;21183;-71
2021/03/26 01:52:40;;;;;;;146.70;78.33;;;;;;;7.28;64.27;100724.45;1766846;79;21175;-73
2021/03/26 01:55:08;;;;;;;147.70;78.57;;;;;;;7.27;64.24;100723.62;1763823;78;26662;-73
2021/03/26 01:57:34;;;;;;;146.40;77.45;;;;;;;7.35;64.16;100721.70;1764723;79;21366;-72
2021/03/26 02:00:00;;;;;;;152.77;81.20;;;;;;;7.34;64.12;100714.77;1779781;79;26840;-72
2021/03/26 02:02:26;;;;;;;147.53;77.70;;;;;;;7.29;64.21;100709.05;1770510;79;24506;-72
2021/03/26 02:04:52;;;;;;;148.43;79.12;;;;;;;7.23;64.36;100710.84;1781966;79;28938;-73
2021/03/26 02:07:18;;;;;;;148.93;79.22;;;;;;;7.24;64.39;100719.06;1768191;79;26959;-73
2021/03/26 02:09:44;;;;;;;152.10;79.85;;;;;;;7.23;64.34;100725.30;1769829;79;21308;-72
2021/03/26 02:12:27;;;;;;;149.75;80.45;;;;;;;7.22;64.43;100726.24;1743941;79;21662;-73
2021/03/26 02:15:03;;;;;;;147.53;78.33;;;;;;;7.19;64.49;100722.91;1766917;79;21207;-73
2021/03/26 02:17:31;;;;;;;149.82;76.05;;;;;;;7.18;64.65;100723.86;1783920;79;21202;-72
2021/03/26 02:20:14;;;;;;;151.45;79.90;;;;;;;7.18;64.86;100725.17;1766982;78;21654;-72
2021/03/26 02:22:40;;;;;;;152.78;82.67;;;;;;;7.09;65.12;100732.45;1765547;79;22045;-72
2021/03/26 02:25:10;;;;;;;153.33;79.13;;;;;;;6.81;65.72;100731.95;1766794;78;25602;-73
2021/03/26 02:27:37;;;;;;;149.77;78.17;;;;;;;6.79;66.18;100735.63;1771094;79;21257;-74
2021/03/26 02:30:11;;;;;;;152.80;81.63;;;;;;;6.82;66.09;100734.09;1768298;79;21158;-72
2021/03/26 02:32:39;;;;;;;148.07;77.75;;;;;;;6.96;65.81;100733.03;1769407;79;21229;-72
2021/03/26 02:35:31;;;;;;;155.00;83.55;;;;;;;6.95;65.67;100737.94;1762143;79;22372;-72
2021/03/26 02:38:18;;;;;;;151.25;80.57;;;;;;;7.01;65.48;100735.67;1760062;79;21583;-74
2021/03/26 02:40:55;;;;;;;169.27;73.47;;;;;;;7.09;65.28;100731.14;1775740;79;21157;-73
2021/03/26 02:43:33;;;;;;;;;;;;;;;7.16;65.04;100731.48;1763355;79;21640;-73
2021/03/26 02:46:07;;;;;;;150.03;79.75;;;;;;;7.19;64.97;100725.53;1771508;79;20286;-72
2021/03/26 02:48:45;;;;;;;142.98;77.40;;;;;;;7.18;64.82;100723.86;1773855;78;21235;-73
2021/03/26 02:51:23;;;;;;;;;;;;;;;7.21;64.67;100729.81;1799072;78;21234;-73
2021/03/26 02:54:09;;;;;;;153.45;80.30;;;;;;;6.91;65.59;100742.57;1795755;78;20317;-73
2021/03/26 02:56:54;;;;;;;156.47;83.33;;;;;;;6.88;65.53;100737.55;1785031;78;21199;-72
2021/03/26 02:59:31;;;;;;;155.67;82.72;;;;;;;6.85;65.54;100742.22;1781034;78;21237;-73
2021/03/26 03:01:57;;;;;;;153.45;82.10;;;;;;;6.86;65.67;100738.64;1790119;77;21631;-73
2021/03/26 03:04:48;;;;;;;161.73;82.82;;;;;;;6.80;65.78;100732.89;1795359;78;27320;-72
2021/03/26 03:07:23;;;;;;;148.43;79.45;;;;;;;6.87;65.64;100733.73;1782112;78;21242;-72
2021/03/26 03:09:51;;;;;;;151.18;81.08;;;;;;;6.91;65.51;100734.70;1779437;78;21157;-73
2021/03/26 03:12:27;;;;;;;149.82;81.47;;;;;;;6.97;65.28;100737.34;1786114;78;21828;-72
2021/03/26 03:15:22;;;;;;;146.47;79.40;;;;;;;6.99;65.31;100738.05;1792998;77;21199;-72
2021/03/26 03:17:58;;;;;;;153.90;81.15;;;;;;;7.07;65.18;100734.83;1784219;78;21278;-73
2021/03/26 03:20:40;;;;;;;167.22;76.62;;;;;;;7.08;65.06;100729.94;1800174;77;21229;-73
2021/03/26 03:23:30;;;;;;;151.78;80.62;;;;;;;7.10;64.96;100718.37;1786503;78;21627;-73
2021/03/26 03:25:57;;;;;;;153.65;79.32;;;;;;;7.08;64.94;100726.83;1776918;78;21225;-74
2021/03/26 03:28:49;;;;;;;163.22;79.53;;;;;;;6.94;65.26;100731.83;1772081;78;21658;-74
2021/03/26 03:31:38;;;;;;;144.68;74.15;;;;;;;6.93;65.47;100739.83;1780676;78;21280;-73
2021/03/26 03:34:39;;;;;;;152.62;82.20;;;;;;;6.92;65.53;100735.06;1769270;78;21108;-72
2021/03/26 03:37:34;;;;;;;155.72;82.02;;;;;;;6.65;66.25;100732.29;1787043;78;21194;-73
2021/03/26 03:40:14;;;;;;;154.97;80.50;;;;;;;6.69;66.72;100739.93;1787722;78;21225;-74
2021/03/26 03:42:49;;;;;;;156.37;85.53;;;;;;;6.54;66.99;100747.16;1798332;78;21256;-73
2021/03/26 03:45:52;;;;;;;150.05;82.75;;;;;;;6.32;67.78;100744.83;1779168;78;21185;-73
2021/03/26 03:48:29;;;;;;;171.47;76.02;;;;;;;6.57;67.02;100729.88;1785220;78;21261;-73
2021/03/26 03:50:59;;;;;;;150.75;81.37;;;;;;;6.73;66.46;100717.27;1785977;78;21225;-73
2021/03/26 03:53:45;;;;;;;156.43;80.55;;;;;;;6.81;66.22;100722.76;1785781;77;21624;-73
2021/03/26 03:56:29;;;;;;;155.07;84.87;;;;;;;6.82;66.15;100720.50;1755711;78;21203;-73
2021/03/26 03:59:08;;;;;;;154.85;84.28;;;;;;;6.88;65.99;100718.35;1791702;78;21197;-72
2021/03/26 04:01:41;;;;;;;155.93;85.72;;;;;;;6.96;65.77;100718.59;1798915;78;21602;-73
2021/03/26 04:04:17;;;;;;;169.45;76.57;;;;;;;6.98;65.66;100727.20;1790940;78;22598;-73
2021/03/26 04:06:53;;;;;;;160.45;82.97;;;;;;;7.04;65.56;100727.19;1778472;78;21487;-74
2021/03/26 04:09:21;;;;;;;157.35;83.33;;;;;;;6.98;65.64;100723.27;1784206;78;22120;-72
2021/03/26 04:11:52;;;;;;;166.65;80.50;;;;;;;6.99;65.60;100728.85;1788184;78;21213;-73
2021/03/26 04:14:25;;;;;;;152.43;83.27;;;;;;;7.01;65.71;100733.05;1783157;77;21641;-73
2021/03/26 04:16:56;;;;;;;148.02;81.78;;;;;;;7.07;65.52;100740.94;1784830;78;21741;-73
2021/03/26 04:19:33;;;;;;;150.95;81.92;;;;;;;6.99;65.69;100735.42;1796648;78;21245;-74
2021/03/26 04:22:08;;;;;;;166.23;75.23;;;;;;;7.06;65.46;100730.06;1796737;78;21204;-74
2021/03/26 04:24:50;;;;;;;159.48;83.20;;;;;;;7.04;65.42;100734.61;1791723;78;21707;-75
2021/03/26 04:27:35;;;;;;;162.25;86.57;;;;;;;6.91;65.84;100739.95;1792918;78;21138;-74
2021/03/26 04:30:16;;;;;;;164.50;86.30;;;;;;;6.63;66.62;100764.38;1800255;78;21197;-75
2021/03/26 04:32:42;;;;;;;158.63;83.67;;;;;;;6.71;66.48;100765.12;1782448;78;21231;-74
2021/03/26 04:35:10;;;;;;;164.03;84.25;;;;;;;6.81;66.30;100760.83;1768791;78;22338;-74
2021/03/26 04:38:09;;;;;;;153.62;82.95;;;;;;;6.65;66.71;100755.08;1787427;78;21146;-74
2021/03/26 04:40:42;;;;;;;166.05;87.30;;;;;;;6.71;66.52;100757.24;1785602;77;21176;-74
2021/03/26 04:43:38;;;;;;;158.52;84.90;;;;;;;6.74;66.44;100766.20;1758162;78;21198;-74
2021/03/26 04:46:20;;;;;;;161.45;87.02;;;;;;;6.74;66.49;100763.58;1804674;78;21186;-73
2021/03/26 04:49:09;;;;;;;164.50;85.70;;;;;;;6.82;66.29;100761.20;1783544;78;21686;-73
2021/03/26 04:52:00;;;;;;;183.78;81.10;;;;;;;6.85;66.21;100764.04;1767303;78;21267;-74
2021/03/26 04:54:37;;;;;;;162.62;85.75;;;;;;;6.75;66.61;100750.79;1765420;78;21242;-73
2021/03/26 04:57:08;;;;;;;162.10;87.27;;;;;;;6.82;66.99;100766.90;1781142;78;21193;-73
2021/03/26 04:59:51;;;;;;;168.07;89.52;;;;;;;6.81;66.77;100778.38;1764961;78;21146;-73
2021/03/26 05:02:17;;;;;;;166.45;86.28;;;;;;;6.74;66.80;100778.02;1781507;78;21755;-73
2021/03/26 05:04:43;;;;;;;159.13;85.73;;;;;;;6.79;66.73;100777.63;1783533;78;27346;-73
2021/03/26 05:07:19;;;;;;;178.70;80.22;;;;;;;6.95;66.38;100782.58;1795609;78;21213;-73
2021/03/26 05:09:46;;;;;;;165.47;87.70;;;;;;;7.05;65.96;100786.16;1796947;78;21655;-73
2021/03/26 05:12:16;;;;;;;160.50;84.47;;;;;;;6.99;66.10;100783.99;1779116;78;21217;-73
2021/03/26 05:14:50;;;;;;;156.12;84.58;;;;;;;7.07;65.93;100788.20;1780354;78;21154;-73
2021/03/26 05:17:30;;;;;;;162.55;87.55;;;;;;;7.09;65.99;100786.77;1791474;78;21529;-73
2021/03/26 05:20:16;;;;;;;165.68;88.58;;;;;;;7.16;65.78;100784.88;1780599;78;21584;-74
2021/03/26 05:22:54;;;;;;;173.53;78.15;;;;;;;7.24;65.74;100785.59;1780039;78;21516;-73
2021/03/26 05:25:35;;;;;;;;;;;;;;;7.25;65.71;100792.98;1788458;78;21687;-74
2021/03/26 05:28:01;;;;;;;161.07;84.72;;;;;;;7.23;65.85;100798.84;1782690;78;21120;-73
2021/03/26 05:30:31;;;;;;;162.90;86.80;;;;;;;7.15;66.05;100799.44;1787610;78;21205;-72
2021/03/26 05:33:05;;;;;;;157.85;86.75;;;;;;;7.12;66.21;100795.25;1783282;78;21655;-72
2021/03/26 05:35:36;;;;;;;188.37;84.92;;;;;;;7.15;66.10;100791.06;1790177;78;21227;-73
2021/03/26 05:38:12;;;;;;;160.20;85.95;;;;;;;7.22;65.94;100787.97;1768351;78;21527;-73
2021/03/26 05:40:53;;;;;;;160.90;84.30;;;;;;;7.27;65.90;100790.61;1783921;78;21236;-73
2021/03/26 05:43:56;;;;;;;162.90;86.82;;;;;;;7.32;65.77;100791.56;1788085;78;21208;-73
2021/03/26 05:46:50;;;;;;;156.45;85.15;;;;;;;7.36;65.68;100791.67;1783388;78;21215;-73
2021/03/26 05:49:30;;;;;;;165.95;86.72;;;;;;;7.45;65.49;100800.15;1793929;78;21435;-72
2021/03/26 05:52:23;;;;;;;162.95;87.55;;;;;;;7.47;65.37;100790.38;1793150;78;21193;-73
2021/03/26 05:55:24;;;;;;;156.82;83.70;;;;;;;7.59;65.13;100791.67;1789211;78;21885;-72
2021/03/26 05:58:18;;;;;;;166.68;88.62;;;;;;;7.64;64.97;100803.97;1786368;78;21640;-73
2021/03/26 06:01:10;;;;;;;158.82;86.28;;;;;;;7.51;65.28;100811.98;1757571;78;21239;-72
2021/03/26 06:03:58;;;;;;;166.07;88.45;;;;;;;7.52;65.53;100812.35;1773516;78;21766;-72
2021/03/26 06:07:01;;;;;;;160.85;86.25;;;;;;;7.44;65.80;100801.58;1793011;78;21151;-73
2021/03/26 06:10:06;;;;;;;160.65;86.22;;;;;;;7.53;65.84;100805.63;1776902;78;22263;-72
2021/03/26 06:13:27;;;;;;;172.82;89.83;;;;;;;7.65;65.54;100817.47;1710256;82;21287;-72
2021/03/26 06:16:19;;;;;;;167.40;88.87;;;;;;;7.41;66.37;100814.50;1790476;78;21233;-70
2021/03/26 06:19:15;;;;;;;171.85;88.20;;;;;;;7.61;65.87;100809.46;1786648;78;21639;-71
2021/03/26 06:22:09;;;;;;;167.35;88.27;;;;;;;7.73;65.64;100816.38;1775915;77;21122;-71
2021/03/26 06:25:21;;;;;;;163.28;86.40;;;;;;;7.91;65.27;100824.13;1802079;78;21801;-73
2021/03/26 06:28:16;;;;;;;165.22;88.78;;;;;;;8.01;64.91;100815.50;1777801;78;21243;-72
2021/03/26 06:31:35;;;;;;;165.43;86.08;;;;;;;8.08;64.68;100818.83;1787120;78;21143;-73
2021/03/26 06:34:11;;;;;;;159.15;85.32;;;;;;;8.03;64.69;100818.84;1789169;78;21189;-74
2021/03/26 06:37:07;;;;;;;165.97;87.97;;;;;;;8.06;64.54;100824.70;1792339;78;21218;-73
2021/03/26 06:39:57;;;;;;;170.43;89.05;;;;;;;8.14;64.52;100824.55;1787793;78;22126;-74
2021/03/26 06:42:31;;;;;;;163.32;87.85;;;;;;;8.19;64.37;100824.55;1787930;78;21217;-74
2021/03/26 06:45:19;;;;;;;170.22;92.10;;;;;;;8.21;64.35;100827.88;1784041;78;21993;-74
2021/03/26 06:48:10;;;;;;;160.57;88.33;;;;;;;8.23;64.24;100827.75;1779255;78;21217;-73
2021/03/26 06:51:14;;;;;;;177.27;91.92;;;;;;;8.31;64.22;100833.22;1777946;78;21146;-70
2021/03/26 06:54:11;;;;;;;163.85;88.95;;;;;;;8.36;64.10;100838.11;1770594;78;21860;-73
2021/03/26 06:57:05;;;;;;;165.70;86.45;;;;;;;8.47;63.93;100838.13;1777682;78;21561;-73
2021/03/26 06:59:59;;;;;;;163.32;85.67;;;;;;;8.49;63.83;100834.88;1764306;78;21615;-72
2021/03/26 07:03:21;;;;;;;155.45;85.67;;;;;;;8.48;64.06;100827.94;1772607;78;21272;-73
2021/03/26 07:06:28;;;;;;;158.25;84.77;;;;;;;8.50;64.31;100838.34;1783727;78;21212;-72
2021/03/26 07:09:34;;;;;;;154.75;83.72;;;;;;;8.72;63.99;100838.25;1752101;78;21609;-73
2021/03/26 07:12:45;;;;;;;156.57;84.47;;;;;;;8.79;63.84;100842.52;1758251;78;21186;-71
2021/03/26 07:15:18;;;;;;;158.80;86.37;;;;;;;8.87;63.87;100843.20;1768806;78;21522;-73
2021/03/26 07:18:26;;;;;;;162.27;87.42;;;;;;;8.92;63.79;100834.45;1780091;78;21326;-76
2021/03/26 07:21:13;;;;;;;158.80;84.37;;;;;;;8.92;63.83;100840.55;1785086;78;21250;-72
2021/03/26 07:24:16;;;;;;;153.87;83.05;;;;;;;9.03;63.67;100836.19;1772205;78;21228;-73
2021/03/26 07:27:06;;;;;;;158.60;85.28;;;;;;;9.05;63.86;100834.25;1772194;78;21567;-74
2021/03/26 07:30:25;;;;;;;151.25;82.65;;;;;;;9.08;63.93;100840.58;1765363;78;21170;-75
2021/03/26 07:33:25;;;;;;;161.32;88.95;;;;;;;9.18;64.03;100847.22;1770252;78;21739;-76
2021/03/26 07:36:17;;;;;;;150.15;84.87;;;;;;;9.23;63.77;100843.23;1769740;78;22552;-76
2021/03/26 07:39:16;;;;;;;155.85;85.10;;;;;;;9.40;63.08;100838.30;1770534;77;21593;-73
2021/03/26 07:42:06;;;;;;;155.18;84.47;;;;;;;9.47;62.67;100842.09;1768850;78;21204;-74
2021/03/26 07:44:46;;;;;;;161.68;84.90;;;;;;;9.56;62.70;100845.27;1768243;78;21637;-77
2021/03/26 07:47:38;;;;;;;160.88;82.40;;;;;;;9.61;62.52;100844.86;1767964;78;21657;-76
2021/03/26 07:50:25;;;;;;;165.35;88.72;;;;;;;9.34;63.09;100851.55;1788255;77;21174;-76
2021/03/26 07:53:14;;;;;;;162.18;87.42;;;;;;;9.15;63.87;100850.47;1782026;78;21765;-75
2021/03/26 07:56:01;;;;;;;171.37;87.45;;;;;;;9.25;63.74;100849.20;1771130;78;21233;-73
2021/03/26 07:58:59;;;;;;;160.88;85.00;;;;;;;9.21;63.88;100853.05;1778894;78;21226;-76
2021/03/26 08:01:54;;;;;;;155.43;83.85;;;;;;;9.25;64.00;100846.56;1779108;78;21225;-77
2021/03/26 08:04:29;;;;;;;159.52;83.90;;;;;;;9.33;63.78;100851.19;1752223;78;21643;-76
2021/03/26 08:07:30;;;;;;;153.75;86.20;;;;;;;9.49;63.57;100852.02;1773102;78;21216;-76
2021/03/26 08:10:01;;;;;;;157.82;84.35;;;;;;;9.57;63.30;100848.26;1781825;78;21624;-78
2021/03/26 08:12:42;;;;;;;163.60;88.20;;;;;;;9.62;63.36;100856.60;1785413;78;21193;-74
2021/03/26 08:15:22;;;;;;;157.93;86.12;;;;;;;9.64;63.30;100854.66;1796113;78;21219;-76
2021/03/26 08:18:08;;;;;;;154.25;85.15;;;;;;;9.76;63.01;100862.50;1794662;78;21234;-74
2021/03/26 08:20:57;;;;;;;166.92;89.37;;;;;;;9.69;63.05;100868.30;1794757;78;21925;-75
2021/03/26 08:23:45;;;;;;;153.75;85.20;;;;;;;9.98;62.75;100873.32;1738266;78;21186;-74
2021/03/26 08:26:53;;;;;;;164.00;86.75;;;;;;;10.02;62.46;100863.68;1787184;78;21493;-76
2021/03/26 08:29:37;;;;;;;155.80;87.02;;;;;;;9.99;62.45;100869.23;1793475;78;21209;-75
2021/03/26 08:32:43;;;;;;;154.25;85.00;;;;;;;10.04;62.42;100869.65;1758718;78;21206;-76
2021/03/26 08:35:26;;;;;;;149.75;80.92;;;;;;;10.16;62.14;100873.48;1695935;82;26978;-75
2021/03/26 08:38:13;;;;;;;154.95;84.05;;;;;;;10.32;61.74;100876.45;1765232;78;21683;-77
2021/03/26 08:40:55;;;;;;;151.60;84.00;;;;;;;10.44;61.40;100883.80;1728952;79;194687;-76
2021/03/26 08:43:21;;;;;;;147.32;80.87;;;;;;;10.56;61.30;100870.79;1739089;81;21218;-77
2021/03/26 08:46:34;;;;;;;153.02;82.50;;;;;;;10.66;60.98;100874.78;1712010;81;21186;-76
2021/03/26 08:49:16;;;;;;;152.70;83.33;;;;;;;10.73;60.75;100869.27;1729833;81;21243;-77
2021/03/26 08:52:32;;;;;;;137.80;79.03;;;;;;;10.85;60.09;100869.97;1730027;80;21064;-79
2021/03/26 08:55:42;;;;;;;136.15;75.72;;;;;;;11.02;60.04;100874.20;1736656;81;21218;-76
2021/03/26 08:58:33;;;;;;;146.40;78.70;;;;;;;11.18;59.46;100874.44;1729643;81;21682;-76
2021/03/26 09:01:22;;;;;;;145.68;79.17;;;;;;;11.35;59.14;100880.80;1732970;81;21206;-77
2021/03/26 09:04:20;;;;;;;148.97;80.05;;;;;;;11.36;59.15;100877.20;1729874;81;23049;-77
2021/03/26 09:07:08;;;;;;;133.95;72.70;;;;;;;11.49;59.14;100872.41;1728279;81;21199;-78
2021/03/26 09:09:54;;;;;;;136.35;76.57;;;;;;;11.52;58.44;100870.47;1701464;81;21267;-75
2021/03/26 09:12:44;;;;;;;151.13;80.47;;;;;;;11.52;58.31;100865.18;1731592;81;21210;-76
2021/03/26 09:15:49;;;;;;;138.47;77.20;;;;;;;11.54;58.42;100865.86;1715519;81;21173;-78
2021/03/26 09:18:54;;;;;;;146.82;79.07;;;;;;;11.49;58.46;100867.11;1715849;81;21913;-77
2021/03/26 09:21:43;;;;;;;137.55;76.17;;;;;;;11.59;58.58;100875.50;1727469;81;21588;-76
2021/03/26 09:24:20;;;;;;;141.05;77.15;;;;;;;11.63;58.16;100886.16;1732345;81;21517;-74
2021/03/26 09:27:15;;;;;;;134.20;74.03;;;;;;;11.70;57.92;100895.19;1725786;81;21207;-74
2021/03/26 09:30:09;;;;;;;133.87;73.40;;;;;;;11.59;57.76;100893.55;1705386;81;21214;-75
2021/03/26 09:32:46;;;;;;;137.60;77.12;;;;;;;11.74;57.84;100896.55;1729289;81;21319;-75
2021/03/26 09:35:39;;;;;;;136.70;76.62;;;;;;;11.76;57.64;100898.58;1731806;81;21653;-78
2021/03/26 09:38:15;;;;;;;135.78;75.20;;;;;;;11.93;57.59;100898.80;1733473;81;21509;-77
2021/03/26 09:41:10;;;;;;;125.93;70.30;;;;;;;11.99;57.10;100898.22;1729884;81;21227;-77
2021/03/26 09:44:01;;;;;;;129.53;71.75;;;;;;;12.08;56.83;100903.95;1726221;81;21401;-79
2021/03/26 09:46:38;;;;;;;129.15;71.82;;;;;;;12.16;56.75;100894.77;1734005;81;21224;-77
2021/03/26 09:49:41;;;;;;;125.82;70.72;;;;;;;12.30;56.61;100897.41;1727668;81;21236;-79
2021/03/26 09:52:39;;;;;;;127.25;70.03;;;;;;;12.41;56.39;100893.72;1686671;81;21211;-78
2021/03/26 09:55:28;;;;;;;120.05;66.87;;;;;;;12.44;56.32;100897.39;1683446;83;21717;-79
2021/03/26 09:58:12;;;;;;;126.65;71.80;;;;;;;12.55;55.85;100883.95;1657776;84;21222;-77
2021/03/26 10:00:55;;;;;;;127.78;70.35;;;;;;;12.66;55.65;100884.21;1649951;86;21231;-78
2021/03/26 10:03:54;;;;;;;128.68;71.45;;;;;;;12.70;55.41;100881.58;1656802;83;21296;-77
2021/03/26 10:06:45;;;;;;;119.45;66.35;;;;;;;12.83;55.45;100880.36;1616353;87;21247;-77
2021/03/26 10:09:43;;;;;;;119.47;65.92;;;;;;;13.00;54.97;100874.70;1634708;86;21228;-75
2021/03/26 10:12:23;;;;;;;102.45;57.60;;;;;;;13.21;54.20;100877.02;1634328;86;21697;-76
2021/03/26 10:15:03;;;;;;;104.83;60.10;;;;;;;13.40;53.38;100873.34;1634993;86;21236;-75
2021/03/26 10:18:04;;;;;;;107.43;60.15;;;;;;;13.52;52.54;100872.09;1616806;87;21230;-76
2021/03/26 10:20:44;;;;;;;97.72;54.67;;;;;;;13.56;52.08;100865.46;1619057;86;21740;-75
2021/03/26 10:23:35;;;;;;;102.12;57.10;;;;;;;13.71;51.59;100870.20;1633913;87;21529;-74
2021/03/26 10:26:36;;;;;;;101.65;58.05;;;;;;;13.85;51.25;100869.59;1637956;86;21208;-76
2021/03/26 10:29:42;;;;;;;96.95;52.67;;;;;;;13.95;50.89;100875.61;1633088;86;21239;-75
2021/03/26 10:32:24;;;;;;;96.67;55.40;;;;;;;14.04;50.03;100865.83;1644966;86;21262;-75
2021/03/26 10:34:50;;;;;;;108.37;59.73;;;;;;;14.05;50.25;100860.87;1639101;86;21246;-76
2021/03/26 10:37:36;;;;;;;102.82;57.88;;;;;;;14.19;50.88;100859.41;1636050;86;21744;-77
2021/03/26 10:40:11;;;;;;;97.05;55.05;;;;;;;14.33;50.43;100870.72;1638977;86;21168;-77
2021/03/26 10:43:03;;;;;;;94.95;53.25;;;;;;;14.51;49.27;100855.13;1635345;86;21414;-77
2021/03/26 10:45:44;;;;;;;87.75;51.90;;;;;;;14.52;48.50;100858.13;1635770;86;21250;-77
2021/03/26 10:48:27;;;;;;;96.90;53.55;;;;;;;14.66;48.11;100846.87;1639327;86;21255;-77
2021/03/26 10:51:21;;;;;;;92.62;51.50;;;;;;;14.80;48.16;100847.22;1636535;86;21653;-77
2021/03/26 10:53:54;;;;;;;95.47;53.80;;;;;;;14.93;47.56;100850.21;1634318;86;21232;-77
2021/03/26 10:56:47;;;;;;;86.72;48.83;;;;;;;14.95;46.76;100846.87;1656698;84;21696;-77
2021/03/26 10:59:40;;;;;;;83.58;46.80;;;;;;;15.06;46.81;100839.05;1655227;85;21260;-77
2021/03/26 11:02:53;;;;;;;88.30;49.30;;;;;;;15.23;46.15;100843.84;1654448;84;21659;-77
2021/03/26 11:05:36;;;;;;;82.30;48.02;;;;;;;15.33;46.18;100848.45;1624765;86;21315;-77
2021/03/26 11:08:26;;;;;;;81.70;47.08;;;;;;;15.49;44.88;100846.75;1650173;84;21461;-78
2021/03/26 11:11:03;;;;;;;85.57;48.38;;;;;;;15.60;45.09;100843.74;1657311;85;21754;-77
2021/03/26 11:14:09;;;;;;;84.55;48.17;;;;;;;15.81;44.90;100831.70;1655202;84;28710;-75
2021/03/26 11:16:43;;;;;;;84.17;48.85;;;;;;;15.90;44.34;100835.98;1656027;84;21250;-75
2021/03/26 11:19:25;;;;;;;82.10;48.63;;;;;;;16.01;44.38;100832.92;1656295;84;21203;-75
2021/03/26 11:21:55;;;;;;;88.05;51.50;;;;;;;16.17;44.35;100837.31;1640556;84;21254;-76
2021/03/26 11:24:21;;;;;;;81.15;47.08;;;;;;;16.05;43.58;100834.24;1658445;84;21590;-76
2021/03/26 11:27:01;;;;;;;83.55;48.65;;;;;;;16.10;43.47;100831.88;1657214;84;21259;-76
2021/03/26 11:29:31;;;;;;;82.60;48.00;;;;;;;16.26;43.21;100829.59;1655438;85;21121;-78
2021/03/26 11:32:11;;;;;;;84.17;49.98;;;;;;;16.32;43.00;100815.56;1656138;84;21210;-77
2021/03/26 11:35:06;;;;;;;89.55;51.50;;;;;;;16.43;43.53;100808.98;1656272;84;21168;-78
2021/03/26 11:37:35;;;;;;;86.67;50.40;;;;;;;16.55;43.71;100813.92;1656225;84;22396;-79
2021/03/26 11:40:09;;;;;;;86.30;49.27;;;;;;;16.69;43.67;100813.13;1654579;86;21306;-77
2021/03/26 11:42:49;;;;;;;89.83;49.98;;;;;;;16.73;43.20;100814.41;1656192;84;21151;-74
2021/03/26 11:45:31;;;;;;;79.55;47.48;;;;;;;16.68;42.46;100814.13;1654911;85;21219;-74
2021/03/26 11:48:20;;;;;;;82.92;49.10;;;;;;;16.59;42.22;100812.02;1654497;86;21223;-76
2021/03/26 11:50:55;;;;;;;78.05;46.98;;;;;;;16.71;42.48;100813.77;1658289;84;21410;-75
2021/03/26 11:53:47;;;;;;;93.47;54.42;;;;;;;16.74;41.95;100809.41;1658737;84;21232;-77
2021/03/26 11:56:39;;;;;;;86.63;47.00;;;;;;;16.51;42.90;100804.09;1661573;84;22685;-76
2021/03/26 11:59:53;;;;;;;83.80;48.08;;;;;;;16.55;42.75;100808.08;1657280;84;21555;-75
2021/03/26 12:03:06;;;;;;;77.62;45.30;;;;;;;16.38;41.72;100800.70;1655108;85;21200;-76
2021/03/26 12:06:20;;;;;;;73.57;41.08;;;;;;;16.38;42.04;100795.38;1656412;84;21267;-77
2021/03/26 12:09:04;;;;;;;74.75;43.00;;;;;;;16.49;41.32;100792.80;1659685;84;21227;-74
2021/03/26 12:12:05;;;;;;;75.32;42.85;;;;;;;16.42;41.17;100787.36;1658243;84;21240;-75
2021/03/26 12:15:10;;;;;;;73.83;43.20;;;;;;;16.43;41.49;100790.33;1657483;84;21714;-75
2021/03/26 12:17:46;;;;;;;73.00;43.45;;;;;;;16.44;41.72;100790.66;1656201;85;21644;-76
2021/03/26 12:20:35;;;;;;;73.90;42.83;;;;;;;16.43;41.77;100786.33;1657367;85;21246;-77